Detalii statie TRANSAVIA REDIU [0000197C]

Toti senzorii

Date Temperatura solului [C]Precipitatii [mm]Voltaj baterie [mV]Leaf Wetness [Min]HC Air temperature [C]HC Relative humidity [%]Punctul de roua [C]
medieminmaxsumaultimatimpmedieminmaxmediemediemin
2018-08-12 11:00:00 22.9 22.5 23.5 0 7050 24.59 23.24 25.3 64.36 17.2 16.8
2018-08-12 12:00:00 24.3 23.6 24.9 0 7098 25.39 24.39 26.26 60.17 16.9 16
2018-08-12 13:00:00 25.2 24.7 25.8 0 7098 26.36 24.69 27.41 54.81 16.3 15.6
2018-08-12 14:00:00 26.2 25.8 26.5 0 7088 25.75 24.7 27.55 59.38 16.9 16
2018-08-12 15:00:00 26.4 26.4 26.6 0 7088 25.76 22.64 27.3 65 18.4 17.8
2018-08-12 16:00:00 26.3 26.2 26.6 0 7088 22.12 21.7 22.78 79.92 18.3 18
2018-08-12 17:00:00 26 25.8 26.2 0 7070 23.29 22.8 23.93 75.69 18.5 18.3
2018-08-12 18:00:00 25.7 25.5 25.8 0 7098 23.33 22.99 23.66 75.62 18.6 18.3
2018-08-12 19:00:00 25.3 25.1 25.6 0 6952 21.74 20.59 23.56 89.44 19.6 18.1
2018-08-12 20:00:00 24.9 24.7 25.1 0 6806 18.85 18.01 20.29 100 18.8 18
2018-08-12 21:00:00 24.3 24.1 24.6 0 6766 17.28 16.58 18.15 100 17.2 16.5
2018-08-12 22:00:00 23.8 23.5 24.1 0 6756 16.31 15.82 16.7 100 16.2 15.8
2018-08-12 23:00:00 23.2 22.9 23.6 0 6748 15.42 14.91 15.84 100 15.3 14.9
2018-08-13 00:00:00 22.7 22.5 23.1 0 6748 14.81 14.67 14.91 100 14.7 14.6
2018-08-13 01:00:00 22.2 21.9 22.4 0 6728 14.59 14.45 14.75 100 14.5 14.4
2018-08-13 02:00:00 21.7 21.4 22.1 0 6728 14.05 13.85 14.32 100 14 13.8
2018-08-13 03:00:00 21.3 21.1 21.6 0 6708 13.51 13.23 14.06 100 13.4 13.2
2018-08-13 04:00:00 20.9 20.8 21.1 0 6698 13.24 13.12 13.39 100 13.2 13.1
2018-08-13 05:00:00 20.6 20.4 20.9 0 6698 12.93 12.73 13.08 100 12.8 12.7
2018-08-13 06:00:00 20.3 20.1 20.5 0 6708 12.64 12.38 13.16 100 12.5 12.3
2018-08-13 07:00:00 19.9 19.8 20.2 0 6766 15.36 13.44 16.8 100 15.3 13.4
2018-08-13 08:00:00 20.1 19.9 20.4 0 6834 19.21 16.88 21.28 99.05 18.9 16.8
2018-08-13 09:00:00 20.9 20.5 21.4 0 6874 22.25 21.11 23.5 84.1 19.2 18.3
2018-08-13 10:00:00 21.8 21.4 22.3 0 6914 22.76 22 23.38 79.4 18.8 18.5
2018-08-13 11:00:00 22.9 22.4 23.5 0 7020 23.9 23.22 24.72 75.22 19 18.3
2018-08-13 12:00:00 24 23.5 24.6 0 7098 25.19 24.53 26.07 67.74 18.6 18
2018-08-13 13:00:00 25.1 24.5 25.8 0 7098 26.66 25.93 27.09 58.59 17.6 16.4
2018-08-13 14:00:00 26.2 25.8 26.7 0 7098 27.44 26.58 28.19 52.56 16.6 15.7
2018-08-13 15:00:00 27 26.7 27.4 0 7088 27.61 26.65 28.41 49.27 15.7 15
2018-08-13 16:00:00 27.1 27.1 27.2 0 7088 27.98 27.4 28.9 47.73 15.6 15.3
2018-08-13 17:00:00 27 26.9 27.2 0 7098 27.67 27.22 28.1 52.06 16.7 16
2018-08-13 18:00:00 26.6 26.4 26.9 0 6894 25.45 22.53 27.32 63.21 17.5 16.6
2018-08-13 19:00:00 26.1 25.8 26.5 0 6834 22.14 21.15 23.23 78.63 18 15.7
2018-08-13 20:00:00 25.5 25.3 25.8 0 6776 22.01 20.86 23.5 83.4 18.8 17.3
2018-08-13 21:00:00 25.1 24.8 25.4 0 6766 19.91 19.18 20.6 99.21 19.7 19.1
2018-08-13 22:00:00 24.7 24.5 24.9 0 6756 18.12 17.16 19.03 100 18 17.1
2018-08-13 23:00:00 24 23.8 24.5 0 6748 16.4 15.94 17.08 100 16.3 15.9
2018-08-14 00:00:00 23.5 23.3 23.8 0 6738 15.81 15.58 16.02 100 15.7 15.5
2018-08-14 01:00:00 22.9 22.6 23.3 0 6728 15.43 15.26 15.72 100 15.3 15.2
2018-08-14 02:00:00 22.5 22.3 22.8 0 6718 15.03 14.81 15.37 100 14.9 14.8
2018-08-14 03:00:00 22.1 22 22.4 0 6698 14.8 14.62 15.08 100 14.7 14.6
2018-08-14 04:00:00 21.7 21.6 22 0 6688 14.7 14.44 15.05 100 14.6 14.4
2018-08-14 05:00:00 21.3 21.2 21.6 0 6698 14.26 14.1 14.54 100 14.2 14.1
2018-08-14 06:00:00 21 20.9 21.2 0 6708 14.49 14.19 15.09 100 14.4 14.1
2018-08-14 07:00:00 20.8 20.7 21 0 6766 16.89 15.26 18.81 100 16.8 15.2
2018-08-14 08:00:00 20.9 20.8 21.2 0 6826 20.52 18.89 21.56 95.23 19.6 18.8
2018-08-14 09:00:00 21.5 21.3 22.1 0 6874 22.05 20.94 22.74 85.01 19.3 18.4
2018-08-14 10:00:00 22.5 22.1 23 0 6904 23.32 22.28 24.5 78.07 19.1 18.5